Terminal Aerodrome Forecast
Issued by NWS Newport/Morehead City, NC

Home | Current Version | Previous Version | Graphics & Text | Print | Product List | Glossary On
Versions: 1 2 3 4 5 6 7 8 9 10 11 12 13 14 15 16 17 18 19
000
FTUS42 KMHX 261136
TAFEWN
TAF
KEWN 261136Z 2612/2712 00000KT P6SM BKN250
     FM261400 VRB04KT P6SM BKN035
     FM261700 16007KT P6SM SCT035
     FM270900 VRB03KT P6SM SCT025=

USA.gov is the U.S. government's official web portal to all federal, state and local government web resources and services.